Time;durP1;ratioP1;P1;durP2;ratioP2;P2;SDS_P1;SDS_P2;PMS_P1;PMS_P2;Temp;Humidity;BMP_temperature;BMP_pressure;BME280_temperature;BME280_humidity;BME280_pressure;Samples;Min_cycle;Max_cycle;Signal;HPM_P1;HPM_P2
2022/03/22 00:00:12;;;;;;;21.63;11.50;;;4.50;99.90;;;;;;5052012;28;20524;-66
2022/03/22 00:02:43;;;;;;;19.17;11.93;;;4.40;99.90;;;;;;5063283;28;20040;-64
2022/03/22 00:05:11;;;;;;;19.92;13.10;;;4.40;99.90;;;;;;5064610;28;20052;-65
2022/03/22 00:07:39;;;;;;;19.33;11.43;;;4.40;99.90;;;;;;5063038;28;20040;-64
2022/03/22 00:10:07;;;;;;;20.48;11.75;;;4.30;99.90;;;;;;5065958;28;20522;-65
2022/03/22 00:12:35;;;;;;;19.83;12.13;;;4.30;99.90;;;;;;5062042;28;20043;-65
2022/03/22 00:15:04;;;;;;;17.40;11.45;;;4.30;99.90;;;;;;5057786;28;20045;-65
2022/03/22 00:17:52;;;;;;;15.65;10.90;;;4.20;99.90;;;;;;5056154;28;20068;-65
2022/03/22 00:20:19;;;;;;;18.98;11.70;;;4.20;99.90;;;;;;5058840;28;20048;-65
2022/03/22 00:22:48;;;;;;;19.45;11.35;;;4.20;99.90;;;;;;5061159;28;20060;-66
2022/03/22 00:25:16;;;;;;;16.42;10.82;;;4.10;99.90;;;;;;5064842;28;20048;-66
2022/03/22 00:27:51;;;;;;;16.58;10.80;;;4.10;99.90;;;;;;5049839;28;20098;-66
2022/03/22 00:30:22;;;;;;;18.15;11.35;;;4.10;99.90;;;;;;5055566;28;20164;-65
2022/03/22 00:32:54;;;;;;;18.92;11.77;;;4.00;99.90;;;;;;5050481;28;20120;-65
2022/03/22 00:35:36;;;;;;;21.50;10.73;;;4.00;99.90;;;;;;5056993;28;20044;-66
2022/03/22 00:38:06;;;;;;;;;;;3.90;99.90;;;;;;5050480;28;20052;-66
2022/03/22 00:40:33;;;;;;;20.33;11.75;;;3.90;99.90;;;;;;5056039;28;19921;-65
2022/03/22 00:43:01;;;;;;;19.00;10.80;;;3.80;99.90;;;;;;5058215;28;20045;-64
2022/03/22 00:45:32;;;;;;;17.45;11.15;;;3.80;99.90;;;;;;5038560;28;20047;-64
2022/03/22 00:48:01;;;;;;;17.38;11.15;;;3.80;99.90;;;;;;5052432;28;20037;-66
2022/03/22 00:50:33;;;;;;;18.55;11.50;;;3.80;99.90;;;;;;5051825;28;20041;-65
2022/03/22 00:53:12;;;;;;;18.80;11.93;;;3.80;99.90;;;;;;5051722;28;20060;-66
2022/03/22 00:55:40;;;;;;;18.13;11.75;;;3.80;99.90;;;;;;5058204;28;20040;-65
2022/03/22 00:58:08;;;;;;;18.55;10.85;;;3.70;99.90;;;;;;5055446;28;20403;-65
2022/03/22 01:00:37;;;;;;;17.42;11.32;;;3.70;99.90;;;;;;5052279;28;20114;-66
2022/03/22 01:03:07;;;;;;;20.45;11.40;;;3.70;99.90;;;;;;5050930;28;20049;-65
2022/03/22 01:05:35;;;;;;;19.13;11.07;;;3.70;99.90;;;;;;5052366;28;20045;-65
2022/03/22 01:08:09;;;;;;;18.95;11.07;;;3.70;99.90;;;;;;5051931;28;20041;-65
2022/03/22 01:10:38;;;;;;;20.77;11.20;;;3.60;99.90;;;;;;5051971;28;20060;-65
2022/03/22 01:13:06;;;;;;;20.75;11.38;;;3.60;99.90;;;;;;5052180;28;20429;-65
2022/03/22 01:15:35;;;;;;;16.40;11.13;;;3.60;99.90;;;;;;5050170;28;20060;-65
2022/03/22 01:18:08;;;;;;;18.00;10.52;;;3.60;99.90;;;;;;5051744;28;20399;-65
2022/03/22 01:20:39;;;;;;;19.60;10.80;;;3.60;99.90;;;;;;5050946;28;20049;-65
2022/03/22 01:23:09;;;;;;;15.93;10.13;;;3.60;99.90;;;;;;5040275;28;20049;-64
2022/03/22 01:25:41;;;;;;;19.08;10.93;;;3.50;99.90;;;;;;5050979;28;20063;-65
2022/03/22 01:28:11;;;;;;;17.35;10.40;;;3.50;99.90;;;;;;5052346;28;20124;-66
2022/03/22 01:30:40;;;;;;;17.40;10.23;;;3.50;99.90;;;;;;5050646;28;20499;-65
2022/03/22 01:33:08;;;;;;;19.23;11.13;;;3.50;99.90;;;;;;5051723;28;20052;-65
2022/03/22 01:35:36;;;;;;;18.50;10.85;;;3.50;99.90;;;;;;5051846;28;20049;-65
2022/03/22 01:38:03;;;;;;;18.33;10.95;;;3.50;99.90;;;;;;5050011;28;20136;-65
2022/03/22 01:40:31;;;;;;;16.13;10.00;;;3.50;99.90;;;;;;5052198;28;20049;-65
2022/03/22 01:42:59;;;;;;;18.80;11.98;;;3.50;99.90;;;;;;5051302;28;20495;-65
2022/03/22 01:45:28;;;;;;;15.43;9.77;;;3.50;99.90;;;;;;5052236;28;20071;-65
2022/03/22 01:47:59;;;;;;;18.55;11.23;;;3.50;99.90;;;;;;5051946;28;20135;-65
2022/03/22 01:50:27;;;;;;;18.75;11.00;;;3.50;99.90;;;;;;5055005;28;20181;-65
2022/03/22 01:52:57;;;;;;;17.00;10.70;;;3.50;99.90;;;;;;5055824;28;20041;-65
2022/03/22 01:55:25;;;;;;;17.65;9.95;;;3.40;99.90;;;;;;5054299;28;20045;-65
2022/03/22 01:57:54;;;;;;;18.88;10.20;;;3.40;99.90;;;;;;5050705;28;20052;-65
2022/03/22 02:00:24;;;;;;;19.17;10.73;;;3.40;99.90;;;;;;5050811;28;20037;-65
2022/03/22 02:06:15;;;;;;;19.13;10.57;;;3.30;99.90;;;;;;5050589;28;20506;-66
2022/03/22 02:08:35;;;;;;;17.60;10.38;;;3.20;99.90;;;;;;5049800;28;20045;-65
2022/03/22 02:11:02;;;;;;;15.50;10.13;;;3.20;99.90;;;;;;5051123;28;20047;-65
2022/03/22 02:13:31;;;;;;;15.73;10.52;;;3.10;99.90;;;;;;5049628;28;20056;-65
2022/03/22 02:16:01;;;;;;;19.33;10.65;;;3.10;99.90;;;;;;5050453;28;20114;-65
2022/03/22 02:18:30;;;;;;;27.83;10.67;;;3.10;99.90;;;;;;5051450;28;20045;-65
2022/03/22 02:20:58;;;;;;;17.33;11.60;;;3.10;99.90;;;;;;5050085;28;20057;-66
2022/03/22 02:23:52;;;;;;;18.05;10.27;;;3.10;99.90;;;;;;5049573;28;20142;-65
2022/03/22 02:26:21;;;;;;;18.15;10.43;;;3.00;99.90;;;;;;5061937;28;20049;-65
2022/03/22 02:28:59;;;;;;;15.57;10.30;;;3.00;99.90;;;;;;5052171;28;20063;-65
2022/03/22 02:31:28;;;;;;;14.55;9.95;;;3.00;99.90;;;;;;5052021;28;20068;-65
2022/03/22 02:33:56;;;;;;;16.70;10.73;;;2.90;99.90;;;;;;5059437;28;20041;-65
2022/03/22 02:36:24;;;;;;;19.70;10.52;;;2.90;99.90;;;;;;5058142;28;20045;-65
2022/03/22 02:38:51;;;;;;;17.40;10.52;;;2.90;99.90;;;;;;5054069;28;20049;-65
2022/03/22 02:41:26;;;;;;;17.05;10.77;;;2.90;99.90;;;;;;5044093;28;20054;-65
2022/03/22 02:43:54;;;;;;;18.25;11.13;;;2.80;99.90;;;;;;5046558;28;20049;-65
2022/03/22 02:46:22;;;;;;;17.92;10.45;;;2.80;99.90;;;;;;5049029;28;20059;-64
2022/03/22 02:48:51;;;;;;;17.13;10.15;;;2.80;99.90;;;;;;5039515;28;20460;-65
2022/03/22 02:51:19;;;;;;;18.38;10.48;;;2.80;99.90;;;;;;5052798;28;20111;-65
2022/03/22 02:53:46;;;;;;;20.80;10.93;;;2.70;99.90;;;;;;5049879;28;20119;-64
2022/03/22 02:56:14;;;;;;;15.80;10.20;;;2.70;99.90;;;;;;5052189;28;20371;-65
2022/03/22 02:58:41;;;;;;;17.02;9.73;;;2.70;99.90;;;;;;5042088;28;20056;-64
2022/03/22 03:01:09;;;;;;;17.40;10.77;;;2.70;99.90;;;;;;5044598;28;20395;-65
2022/03/22 03:03:37;;;;;;;20.58;11.38;;;2.60;99.90;;;;;;5056770;28;20083;-65
2022/03/22 03:06:06;;;;;;;16.65;10.05;;;2.60;99.90;;;;;;5047759;28;20049;-63
2022/03/22 03:08:33;;;;;;;17.90;10.95;;;2.60;99.90;;;;;;5048689;28;20411;-65
2022/03/22 03:11:01;;;;;;;16.17;10.75;;;2.60;99.90;;;;;;5048039;28;20041;-65
2022/03/22 03:14:38;;;;;;;17.83;11.05;;;2.60;99.90;;;;;;5055359;28;20040;-65
2022/03/22 03:16:15;;;;;;;16.42;10.35;;;2.50;99.90;;;;;;5037838;28;20579;-64
2022/03/22 03:18:43;;;;;;;18.40;9.95;;;2.50;99.90;;;;;;5049598;28;20055;-65
2022/03/22 03:21:11;;;;;;;17.27;10.40;;;2.50;99.90;;;;;;5049618;28;20913;-65
2022/03/22 03:23:38;;;;;;;16.00;9.90;;;2.50;99.90;;;;;;5036108;28;20053;-65
2022/03/22 03:26:06;;;;;;;17.05;10.48;;;2.50;99.90;;;;;;5048909;28;20393;-64
2022/03/22 03:28:34;;;;;;;17.70;10.65;;;2.50;99.90;;;;;;5047035;28;20045;-66
2022/03/22 03:31:01;;;;;;;19.13;10.48;;;2.50;99.90;;;;;;5046677;28;20045;-65
2022/03/22 03:33:29;;;;;;;18.50;9.90;;;2.50;99.90;;;;;;5040597;28;20587;-65
2022/03/22 03:35:56;;;;;;;17.70;10.05;;;2.50;99.90;;;;;;5058452;28;20047;-66
2022/03/22 03:38:23;;;;;;;15.50;10.02;;;2.40;99.90;;;;;;5039876;28;20039;-65
2022/03/22 03:43:37;;;;;;;18.05;10.98;;;2.40;99.90;;;;;;5044444;28;20118;-65
2022/03/22 03:48:49;;;;;;;20.05;10.38;;;2.30;99.90;;;;;;5037852;28;20542;-65
2022/03/22 03:51:17;;;;;;;17.38;10.20;;;2.30;99.90;;;;;;5050910;28;20045;-65
2022/03/22 03:53:44;;;;;;;16.63;9.75;;;2.30;99.90;;;;;;5052583;28;20432;-65
2022/03/22 03:56:11;;;;;;;17.38;10.80;;;2.20;99.90;;;;;;5065162;28;20051;-65
2022/03/22 03:58:38;;;;;;;17.27;9.85;;;2.20;99.90;;;;;;5061032;28;20495;-65
2022/03/22 04:01:05;;;;;;;16.00;9.90;;;2.10;99.90;;;;;;5048768;28;20170;-65
2022/03/22 04:03:33;;;;;;;17.42;10.07;;;2.10;99.90;;;;;;5041252;28;20052;-64
2022/03/22 04:06:00;;;;;;;17.88;10.70;;;2.10;99.90;;;;;;5047017;28;20060;-65
2022/03/22 04:08:28;;;;;;;14.93;9.38;;;2.10;99.90;;;;;;5052854;28;20053;-65
2022/03/22 04:10:55;;;;;;;17.40;9.95;;;2.10;99.90;;;;;;5055484;28;20044;-65
2022/03/22 04:13:22;;;;;;;13.90;9.30;;;2.10;99.90;;;;;;5044808;28;20039;-65
2022/03/22 04:15:50;;;;;;;15.88;9.50;;;2.10;99.90;;;;;;5054567;28;20049;-65
2022/03/22 04:18:17;;;;;;;14.30;9.40;;;2.10;99.90;;;;;;5060221;28;20063;-65
2022/03/22 04:20:47;;;;;;;21.83;9.93;;;2.10;99.90;;;;;;5059250;28;20049;-65
2022/03/22 04:23:15;;;;;;;18.60;9.10;;;2.00;99.90;;;;;;5063734;28;20047;-65
2022/03/22 04:25:42;;;;;;;17.58;9.93;;;2.00;99.90;;;;;;5062638;28;20040;-65
2022/03/22 04:33:41;;;;;;;17.73;9.93;;;2.00;99.90;;;;;;5063582;28;20068;-65
2022/03/22 04:36:12;;;;;;;17.02;10.02;;;1.90;99.90;;;;;;5062758;28;20471;-65
2022/03/22 04:38:39;;;;;;;17.88;10.15;;;1.90;99.90;;;;;;5063567;28;20041;-65
2022/03/22 04:41:08;;;;;;;16.13;10.27;;;1.90;99.90;;;;;;5050790;28;20045;-66
2022/03/22 04:43:35;;;;;;;16.23;9.52;;;1.80;99.90;;;;;;5051199;28;20077;-64
2022/03/22 04:46:03;;;;;;;16.85;10.63;;;1.80;99.90;;;;;;5043375;28;20072;-65
2022/03/22 04:48:31;;;;;;;17.80;10.90;;;1.80;99.90;;;;;;5051054;28;20484;-65
2022/03/22 04:56:48;;;;;;;16.67;9.27;;;1.80;99.90;;;;;;5023400;28;20048;-65
2022/03/22 04:59:19;;;;;;;17.75;10.00;;;1.70;99.90;;;;;;5055652;28;20495;-65
2022/03/22 05:01:46;;;;;;;14.57;9.00;;;1.70;99.90;;;;;;5047333;28;20056;-65
2022/03/22 05:04:14;;;;;;;18.88;11.25;;;1.70;99.90;;;;;;5054642;28;20053;-65
2022/03/22 05:06:41;;;;;;;14.70;9.20;;;1.70;99.90;;;;;;5056484;28;20067;-65
2022/03/22 05:09:10;;;;;;;17.02;10.00;;;1.70;99.90;;;;;;5051975;28;20610;-64
2022/03/22 05:11:38;;;;;;;18.52;10.82;;;1.70;99.90;;;;;;5055595;28;20132;-66
2022/03/22 05:14:06;;;;;;;16.45;10.38;;;1.80;99.90;;;;;;5051782;28;20052;-65
2022/03/22 05:16:35;;;;;;;16.50;10.13;;;1.80;99.90;;;;;;5062225;28;20487;-65
2022/03/22 05:19:06;;;;;;;16.42;9.95;;;1.70;99.90;;;;;;5044771;28;20042;-65
2022/03/22 05:21:33;;;;;;;22.63;11.38;;;1.80;99.90;;;;;;5052360;28;20060;-65
2022/03/22 05:24:01;;;;;;;16.10;9.57;;;1.80;99.90;;;;;;5061694;28;20044;-65
2022/03/22 05:26:28;;;;;;;18.25;10.15;;;1.80;99.90;;;;;;5058356;28;20063;-66
2022/03/22 05:28:56;;;;;;;19.25;11.30;;;1.90;99.90;;;;;;5055373;28;20060;-66
2022/03/22 05:31:23;;;;;;;18.70;11.25;;;1.90;99.90;;;;;;5046755;28;20033;-66
2022/03/22 05:33:52;;;;;;;18.05;11.05;;;2.00;99.90;;;;;;5045638;28;20459;-67
2022/03/22 05:36:20;;;;;;;18.48;10.20;;;2.10;99.90;;;;;;5050354;28;20059;-65
2022/03/22 05:38:47;;;;;;;15.88;9.82;;;2.10;99.90;;;;;;5050257;28;20527;-65
2022/03/22 05:41:14;;;;;;;17.58;9.45;;;2.20;99.90;;;;;;5048178;28;20421;-66
2022/03/22 05:43:42;;;;;;;18.08;10.13;;;2.30;99.90;;;;;;5050072;28;20041;-66
2022/03/22 05:46:10;;;;;;;16.98;9.15;;;2.40;99.90;;;;;;5055491;28;20044;-66
2022/03/22 05:48:39;;;;;;;17.48;9.35;;;2.50;99.90;;;;;;5045272;28;20045;-66
2022/03/22 05:51:06;;;;;;;16.90;10.07;;;2.50;99.90;;;;;;5055985;28;20045;-65
2022/03/22 05:53:33;;;;;;;18.73;9.60;;;2.60;99.90;;;;;;5053871;28;20119;-66
2022/03/22 05:56:01;;;;;;;16.40;9.48;;;2.70;99.90;;;;;;5059027;28;20037;-65
2022/03/22 05:58:28;;;;;;;16.42;9.05;;;2.80;99.90;;;;;;5062543;28;20463;-65
2022/03/22 06:00:55;;;;;;;19.63;10.00;;;2.90;99.90;;;;;;5048565;28;20044;-65
2022/03/22 06:03:23;;;;;;;18.00;9.98;;;3.00;99.90;;;;;;5048868;28;20076;-65
2022/03/22 06:05:51;;;;;;;24.25;12.63;;;3.00;99.90;;;;;;5044677;28;20045;-65
2022/03/22 06:08:19;;;;;;;19.50;11.80;;;3.10;99.90;;;;;;5046363;28;20500;-66
2022/03/22 06:10:47;;;;;;;23.23;11.70;;;3.20;99.90;;;;;;5056103;28;20040;-66
2022/03/22 06:13:14;;;;;;;23.77;11.05;;;3.20;99.90;;;;;;5058401;28;20045;-65
2022/03/22 06:15:43;;;;;;;25.23;13.48;;;3.30;99.90;;;;;;5049684;28;20105;-67
2022/03/22 06:18:11;;;;;;;21.50;10.68;;;3.40;99.90;;;;;;5052490;28;20048;-67
2022/03/22 06:20:43;;;;;;;18.85;9.93;;;3.50;99.90;;;;;;5052549;28;20053;-66
2022/03/22 06:23:12;;;;;;;17.45;10.10;;;3.50;99.90;;;;;;5050836;28;20127;-67
2022/03/22 06:25:41;;;;;;;18.75;9.70;;;3.60;99.90;;;;;;5050785;28;20162;-67
2022/03/22 06:28:09;;;;;;;18.75;9.70;;;3.70;99.90;;;;;;5050380;28;20083;-67
2022/03/22 06:30:37;;;;;;;16.52;10.10;;;3.70;99.90;;;;;;5050760;28;20518;-66
2022/03/22 06:33:13;;;;;;;18.23;10.23;;;3.80;99.90;;;;;;5050219;28;20521;-66
2022/03/22 06:35:42;;;;;;;17.48;9.38;;;3.80;99.90;;;;;;5058250;28;20059;-66
2022/03/22 06:38:10;;;;;;;18.38;9.60;;;4.00;99.90;;;;;;5050409;28;20045;-67
2022/03/22 06:40:39;;;;;;;17.10;9.60;;;4.10;99.90;;;;;;5059112;28;20094;-66
2022/03/22 06:43:09;;;;;;;15.05;9.07;;;4.10;99.90;;;;;;5057582;28;20041;-66
2022/03/22 06:45:37;;;;;;;15.27;9.43;;;4.20;99.90;;;;;;5048027;28;20392;-65
2022/03/22 06:48:09;;;;;;;15.35;9.20;;;4.30;99.90;;;;;;5049682;28;20089;-68
2022/03/22 06:50:37;;;;;;;16.20;9.38;;;4.40;99.90;;;;;;5047157;28;20472;-67
2022/03/22 06:53:06;;;;;;;15.90;9.65;;;4.40;99.90;;;;;;5052544;28;20045;-65
2022/03/22 06:55:34;;;;;;;15.27;9.60;;;4.50;99.90;;;;;;5053209;28;20044;-66
2022/03/22 06:58:03;;;;;;;15.50;9.52;;;4.60;99.90;;;;;;5050834;28;20116;-66
2022/03/22 07:00:31;;;;;;;17.42;9.48;;;4.60;99.90;;;;;;5042968;28;20372;-66
2022/03/22 07:03:02;;;;;;;14.63;9.48;;;4.60;99.90;;;;;;5049778;28;20135;-66
2022/03/22 07:05:30;;;;;;;16.73;9.27;;;4.70;99.90;;;;;;5047181;28;20041;-66
2022/03/22 07:07:57;;;;;;;17.17;9.75;;;4.80;99.90;;;;;;5051092;28;20045;-66
2022/03/22 07:10:25;;;;;;;16.70;10.02;;;4.80;99.90;;;;;;5050241;28;20548;-66
2022/03/22 07:12:56;;;;;;;16.02;9.48;;;4.90;99.90;;;;;;5049920;28;20515;-66
2022/03/22 07:15:33;;;;;;;16.08;8.88;;;5.00;99.90;;;;;;5050325;28;20040;-65
2022/03/22 07:18:05;;;;;;;17.83;9.70;;;5.10;99.90;;;;;;5043510;28;20065;-65
2022/03/22 07:20:33;;;;;;;16.17;9.48;;;5.20;99.90;;;;;;5050002;28;20503;-66
2022/03/22 07:23:01;;;;;;;14.27;8.90;;;5.30;99.90;;;;;;5048338;28;20053;-66
2022/03/22 07:25:29;;;;;;;16.45;9.88;;;5.40;99.90;;;;;;5050263;28;20052;-66
2022/03/22 07:27:57;;;;;;;14.38;9.38;;;5.40;99.90;;;;;;5047551;28;20110;-66
2022/03/22 07:30:24;;;;;;;15.80;9.85;;;5.50;99.90;;;;;;5049187;28;20041;-66
2022/03/22 07:32:51;;;;;;;15.55;9.07;;;5.60;99.90;;;;;;5048331;28;20033;-67
2022/03/22 07:35:19;;;;;;;15.23;9.50;;;5.70;99.60;;;;;;5044569;28;20108;-66
2022/03/22 07:37:48;;;;;;;18.63;9.48;;;5.80;99.30;;;;;;5050942;28;20044;-66
2022/03/22 07:40:18;;;;;;;16.90;9.32;;;5.90;99.10;;;;;;5048559;28;20056;-67
2022/03/22 07:42:48;;;;;;;14.73;8.75;;;6.00;98.80;;;;;;5044782;28;20083;-66
2022/03/22 07:45:19;;;;;;;17.35;9.60;;;6.10;98.60;;;;;;5053019;28;20083;-67
2022/03/22 07:47:47;;;;;;;16.08;9.10;;;6.20;98.50;;;;;;5060333;28;20452;-66
2022/03/22 07:53:01;;;;;;;14.73;9.52;;;6.40;97.70;;;;;;5047812;28;20047;-67
2022/03/22 07:55:31;;;;;;;14.80;8.57;;;6.50;97.30;;;;;;5052366;28;20408;-66
2022/03/22 07:57:59;;;;;;;14.52;9.38;;;6.60;97.60;;;;;;5055825;28;20135;-66
2022/03/22 08:00:28;;;;;;;16.17;9.95;;;6.70;97.30;;;;;;5045079;28;20399;-66
2022/03/22 08:02:57;;;;;;;22.85;8.52;;;6.90;97.10;;;;;;5057545;28;20049;-67
2022/03/22 08:05:25;;;;;;;16.23;9.57;;;7.00;96.30;;;;;;5052685;28;20044;-66
2022/03/22 08:07:56;;;;;;;22.60;9.82;;;7.10;96.20;;;;;;5041073;28;20127;-66
2022/03/22 08:10:45;;;;;;;15.48;8.70;;;7.20;95.80;;;;;;5051488;28;20087;-66
2022/03/22 08:13:12;;;;;;;14.10;8.68;;;7.40;95.50;;;;;;5052009;28;20155;-67
2022/03/22 08:15:40;;;;;;;16.05;9.57;;;7.50;95.10;;;;;;5050616;28;20107;-66
2022/03/22 08:18:09;;;;;;;18.05;9.55;;;7.60;94.40;;;;;;5052431;28;20494;-67
2022/03/22 08:20:37;;;;;;;12.73;8.43;;;7.70;94.60;;;;;;5052991;28;20166;-66
2022/03/22 08:23:06;;;;;;;16.55;9.82;;;7.80;94.20;;;;;;5057133;28;20049;-66
2022/03/22 08:25:38;;;;;;;16.45;8.18;;;7.90;93.80;;;;;;5051898;28;20071;-66
2022/03/22 08:28:08;;;;;;;18.05;9.70;;;8.10;93.80;;;;;;5057496;28;20051;-66
2022/03/22 08:30:37;;;;;;;14.45;8.85;;;8.20;93.00;;;;;;5053134;28;20127;-66
2022/03/22 08:33:07;;;;;;;17.85;8.73;;;8.30;93.10;;;;;;5068494;28;20037;-66
2022/03/22 08:35:35;;;;;;;14.40;8.60;;;8.50;93.00;;;;;;5062569;28;20044;-66
2022/03/22 08:38:03;;;;;;;12.90;8.18;;;8.60;92.60;;;;;;5054791;28;20599;-67
2022/03/22 08:40:31;;;;;;;14.90;8.60;;;8.80;92.30;;;;;;5058420;28;20059;-66
2022/03/22 08:42:58;;;;;;;15.20;8.98;;;8.90;91.90;;;;;;5053335;28;20056;-65
2022/03/22 08:45:27;;;;;;;14.63;8.38;;;9.00;91.70;;;;;;5054686;28;20071;-66
2022/03/22 08:47:55;;;;;;;15.70;8.57;;;9.10;91.40;;;;;;5052370;28;20120;-66
2022/03/22 08:50:25;;;;;;;14.40;8.50;;;9.20;91.00;;;;;;5051889;28;20132;-66
2022/03/22 08:52:56;;;;;;;17.67;8.63;;;9.30;91.00;;;;;;5066975;28;20558;-66
2022/03/22 08:55:24;;;;;;;12.43;8.00;;;9.50;90.50;;;;;;5054800;28;20045;-66
2022/03/22 08:57:53;;;;;;;15.35;8.35;;;9.60;90.30;;;;;;5047241;28;20044;-67
2022/03/22 09:00:21;;;;;;;13.07;8.48;;;9.80;90.20;;;;;;5060030;28;20045;-66
2022/03/22 09:02:51;;;;;;;17.52;8.35;;;9.80;90.00;;;;;;5049490;28;20515;-66
2022/03/22 09:08:06;;;;;;;15.85;8.35;;;9.90;90.00;;;;;;5047688;28;20052;-65
2022/03/22 09:10:35;;;;;;;16.05;9.00;;;10.00;89.70;;;;;;5040622;28;20536;-66
2022/03/22 09:13:04;;;;;;;14.82;8.23;;;10.10;88.80;;;;;;5051434;28;20091;-66
2022/03/22 09:15:35;;;;;;;13.63;8.13;;;10.20;88.90;;;;;;5052907;28;20090;-66
2022/03/22 09:18:04;;;;;;;13.15;8.15;;;10.40;89.00;;;;;;5053752;28;20045;-66
2022/03/22 09:20:32;;;;;;;12.70;8.15;;;10.50;88.00;;;;;;5064607;28;20041;-66
2022/03/22 09:23:01;;;;;;;12.75;7.75;;;10.60;86.70;;;;;;5065894;28;20440;-66
2022/03/22 09:25:28;;;;;;;13.98;8.52;;;10.70;86.40;;;;;;5048797;28;20499;-66
2022/03/22 09:27:56;;;;;;;13.90;7.90;;;10.70;85.90;;;;;;5046308;28;20423;-66
2022/03/22 09:30:24;;;;;;;13.13;8.63;;;10.80;86.10;;;;;;5051860;28;20495;-66
2022/03/22 09:32:52;;;;;;;15.98;8.70;;;10.90;84.80;;;;;;5059101;28;20041;-66
2022/03/22 09:35:19;;;;;;;13.50;7.95;;;11.00;85.00;;;;;;5058379;28;20045;-66
2022/03/22 09:37:48;;;;;;;14.00;7.85;;;11.10;84.80;;;;;;5059853;28;20701;-66
2022/03/22 09:40:18;;;;;;;15.13;8.07;;;11.20;83.50;;;;;;5060810;28;20043;-67
2022/03/22 09:42:49;;;;;;;13.02;8.10;;;11.40;83.50;;;;;;5062244;28;20108;-67
2022/03/22 09:45:18;;;;;;;11.73;7.97;;;11.60;82.40;;;;;;5052546;28;20072;-65
2022/03/22 09:47:46;;;;;;;14.00;7.65;;;11.80;81.70;;;;;;5046336;28;20041;-65
2022/03/22 09:50:15;;;;;;;12.02;8.32;;;12.00;82.10;;;;;;5047423;28;20045;-66
2022/03/22 09:52:43;;;;;;;13.57;8.10;;;12.10;81.20;;;;;;5049788;28;20087;-66
2022/03/22 09:55:12;;;;;;;13.68;7.50;;;12.20;80.80;;;;;;5050176;28;20061;-66
2022/03/22 09:57:40;;;;;;;13.85;7.65;;;12.40;80.20;;;;;;5058355;28;20166;-66
2022/03/22 10:00:14;;;;;;;14.68;8.18;;;12.50;79.50;;;;;;5056117;28;20387;-66
2022/03/22 10:02:41;;;;;;;;;;;12.60;79.10;;;;;;5053800;28;20059;-66
2022/03/22 10:05:24;;;;;;;14.00;8.05;;;12.70;78.90;;;;;;5055998;28;19920;-67
2022/03/22 10:08:21;;;;;;;11.57;7.68;;;13.00;78.50;;;;;;5059931;28;20118;-66
2022/03/22 10:10:55;;;;;;;11.38;6.38;;;13.20;77.00;;;;;;5041269;28;20041;-65
2022/03/22 10:13:23;;;;;;;13.80;7.53;;;13.40;76.90;;;;;;5043942;28;20045;-66
2022/03/22 10:15:59;;;;;;;14.65;7.65;;;13.60;75.60;;;;;;5051206;28;20420;-66
2022/03/22 10:18:27;;;;;;;13.85;7.75;;;13.70;75.00;;;;;;5052476;28;20062;-66
2022/03/22 10:21:00;;;;;;;11.65;7.70;;;13.90;73.00;;;;;;5050890;28;20045;-67
2022/03/22 10:23:31;;;;;;;15.57;9.25;;;14.00;72.70;;;;;;5062983;28;20044;-67
2022/03/22 10:26:09;;;;;;;11.15;7.25;;;14.40;71.80;;;;;;5052201;28;20549;-67
2022/03/22 10:28:36;;;;;;;10.57;6.22;;;14.50;70.00;;;;;;5057698;28;20485;-67
2022/03/22 10:31:04;;;;;;;9.13;6.47;;;14.70;68.40;;;;;;5059945;28;20029;-66
2022/03/22 10:33:31;;;;;;;12.18;6.85;;;14.90;68.00;;;;;;5061872;28;20036;-67
2022/03/22 10:35:58;;;;;;;10.95;7.15;;;15.10;67.50;;;;;;5053753;28;20090;-67
2022/03/22 10:38:26;;;;;;;12.73;6.90;;;15.20;67.30;;;;;;5056726;28;20502;-67
2022/03/22 10:40:53;;;;;;;10.02;6.60;;;15.40;66.30;;;;;;5044809;28;20036;-66
2022/03/22 10:43:23;;;;;;;13.50;6.97;;;15.50;65.50;;;;;;5056029;28;20075;-66
2022/03/22 10:45:53;;;;;;;14.27;6.50;;;15.70;66.10;;;;;;5053821;28;20065;-67
2022/03/22 10:48:30;;;;;;;9.70;6.70;;;15.90;65.10;;;;;;5054164;28;20546;-65
2022/03/22 10:50:59;;;;;;;13.95;6.18;;;16.10;63.50;;;;;;5059012;28;20048;-66
2022/03/22 10:53:29;;;;;;;8.57;6.07;;;16.30;62.70;;;;;;5047999;28;20412;-68
2022/03/22 10:55:58;;;;;;;11.27;5.97;;;16.50;61.90;;;;;;5055737;28;20105;-66
2022/03/22 10:58:27;;;;;;;9.55;6.10;;;16.70;60.10;;;;;;5061729;28;20037;-67
2022/03/22 11:00:57;;;;;;;8.90;6.00;;;16.80;60.30;;;;;;5042257;28;20048;-68
2022/03/22 11:03:29;;;;;;;10.32;5.80;;;16.70;59.10;;;;;;5049536;28;20052;-67
2022/03/22 11:05:57;;;;;;;;;;;17.00;59.90;;;;;;5042563;28;20045;-67
2022/03/22 11:08:27;;;;;;;9.82;5.75;;;17.10;58.00;;;;;;5037303;28;19924;-67
2022/03/22 11:10:55;;;;;;;10.95;5.57;;;17.40;58.30;;;;;;5047467;28;20033;-67
2022/03/22 11:13:23;;;;;;;8.25;5.35;;;17.70;57.10;;;;;;5047700;28;20055;-68
2022/03/22 11:15:52;;;;;;;7.88;5.30;;;18.00;56.80;;;;;;5052994;28;20454;-66
2022/03/22 11:18:21;;;;;;;10.35;5.75;;;18.20;55.40;;;;;;5049920;28;20041;-66
2022/03/22 11:20:56;;;;;;;7.97;5.45;;;18.40;55.00;;;;;;5029040;28;20037;-66
2022/03/22 11:23:27;;;;;;;9.70;5.53;;;18.50;54.40;;;;;;5055464;28;20074;-66
2022/03/22 11:26:06;;;;;;;9.80;5.47;;;18.80;53.60;;;;;;5063151;28;20511;-66
2022/03/22 11:28:34;;;;;;;8.50;5.45;;;19.10;53.10;;;;;;5048085;28;20045;-66
2022/03/22 11:31:02;;;;;;;10.55;5.03;;;19.20;52.20;;;;;;5056068;28;20045;-67
2022/03/22 11:36:49;;;;;;;8.32;4.85;;;19.70;52.10;;;;;;5017804;28;20444;-66
2022/03/22 11:39:19;;;;;;;10.15;5.20;;;20.10;51.20;;;;;;5020291;28;20160;-66
2022/03/22 11:44:36;;;;;;;9.32;5.32;;;20.60;51.00;;;;;;5019416;28;20049;-66
2022/03/22 11:47:05;;;;;;;10.85;5.75;;;21.00;49.70;;;;;;5020011;28;20049;-66
2022/03/22 11:50:00;;;;;;;9.02;4.95;;;21.30;49.40;;;;;;5023752;28;20071;-66
2022/03/22 11:52:43;;;;;;;9.85;4.95;;;21.40;48.50;;;;;;5017406;28;20432;-66
2022/03/22 11:55:23;;;;;;;7.88;5.00;;;21.60;48.30;;;;;;5028898;28;20080;-66
2022/03/22 11:58:05;;;;;;;6.65;4.82;;;21.60;47.90;;;;;;5015163;28;20092;-66
2022/03/22 12:00:56;;;;;;;7.38;4.53;;;22.00;47.80;;;;;;5023264;28;20049;-66
2022/03/22 12:03:31;;;;;;;8.90;5.05;;;22.20;47.20;;;;;;5023046;28;20045;-66
2022/03/22 12:06:11;;;;;;;10.48;5.18;;;22.50;46.10;;;;;;5026758;28;20050;-66
2022/03/22 12:08:41;;;;;;;6.20;4.45;;;22.50;46.20;;;;;;5023987;28;20058;-66
2022/03/22 12:11:16;;;;;;;7.20;4.75;;;22.50;45.80;;;;;;5034579;28;20103;-64
2022/03/22 12:13:49;;;;;;;8.10;5.35;;;22.70;45.80;;;;;;5044601;28;20033;-65
2022/03/22 12:16:17;;;;;;;7.20;4.28;;;23.00;45.20;;;;;;5046945;28;20029;-66
2022/03/22 12:18:44;;;;;;;7.13;4.85;;;23.20;45.20;;;;;;5047361;28;20058;-64
2022/03/22 12:21:19;;;;;;;6.57;4.28;;;23.50;44.30;;;;;;5043986;28;20044;-65
2022/03/22 12:23:47;;;;;;;7.68;5.22;;;23.60;44.10;;;;;;5051243;28;20102;-65
2022/03/22 12:26:15;;;;;;;8.15;4.45;;;23.60;43.50;;;;;;5052707;28;20155;-65
2022/03/22 12:28:49;;;;;;;6.55;4.30;;;23.60;43.30;;;;;;5045226;28;20068;-65
2022/03/22 12:31:21;;;;;;;6.47;4.30;;;23.60;42.80;;;;;;5044375;28;20048;-64
2022/03/22 12:33:50;;;;;;;8.05;4.63;;;23.60;42.40;;;;;;5046137;28;20044;-65
2022/03/22 12:36:22;;;;;;;9.10;4.55;;;23.80;43.00;;;;;;5050749;28;20037;-65
2022/03/22 12:38:49;;;;;;;9.20;4.72;;;24.00;42.60;;;;;;5051256;28;20412;-65
2022/03/22 12:41:17;;;;;;;6.85;4.88;;;24.40;42.00;;;;;;5047932;28;20050;-67
2022/03/22 12:43:45;;;;;;;7.55;4.70;;;24.60;42.10;;;;;;5041379;28;20045;-66
2022/03/22 12:46:13;;;;;;;7.13;4.70;;;24.70;41.50;;;;;;5052974;28;20480;-67
2022/03/22 12:48:41;;;;;;;10.45;4.82;;;24.90;41.60;;;;;;5040335;28;20049;-65
2022/03/22 12:51:10;;;;;;;6.75;4.75;;;25.00;41.60;;;;;;5049966;28;20458;-66
2022/03/22 12:53:37;;;;;;;7.13;4.72;;;25.40;41.50;;;;;;5052170;28;20041;-65
2022/03/22 12:56:18;;;;;;;6.97;4.40;;;25.60;41.50;;;;;;5046976;28;20510;-66
2022/03/22 12:58:47;;;;;;;6.72;4.22;;;25.80;40.60;;;;;;5056758;28;20506;-67
2022/03/22 13:01:16;;;;;;;6.60;4.43;;;26.10;39.90;;;;;;5046510;28;20401;-67
2022/03/22 13:03:45;;;;;;;7.25;5.13;;;26.50;40.10;;;;;;5051538;28;20098;-66
2022/03/22 13:06:13;;;;;;;8.38;5.55;;;27.00;39.70;;;;;;5054771;28;20057;-67
2022/03/22 13:11:32;;;;;;;7.05;4.88;;;29.90;38.70;;;;;;5045861;28;20048;-67
2022/03/22 13:16:51;;;;;;;7.22;4.75;;;33.90;37.30;;;;;;5033107;28;20045;-67
2022/03/22 13:19:19;;;;;;;5.88;4.30;;;35.40;36.00;;;;;;5075750;28;20055;-66
2022/03/22 13:21:46;;;;;;;9.38;4.40;;;36.10;34.90;;;;;;5058219;28;20132;-66
2022/03/22 13:24:22;;;;;;;7.13;4.90;;;37.00;34.10;;;;;;5059087;28;20132;-66
2022/03/22 13:26:55;;;;;;;8.07;4.32;;;37.40;33.50;;;;;;5055264;28;20511;-67
2022/03/22 13:29:25;;;;;;;5.68;3.95;;;37.50;32.50;;;;;;5048638;28;20048;-67
2022/03/22 13:31:57;;;;;;;7.22;4.05;;;37.60;32.30;;;;;;5051631;28;20045;-67